createdAt,value
2023-04-14T00:00:12.764Z,1.80
2023-04-14T00:02:41.157Z,1.00
2023-04-14T00:05:10.478Z,1.00
2023-04-14T00:07:38.455Z,1.00
2023-04-14T00:10:08.530Z,2.20
2023-04-14T00:12:36.786Z,4.00
2023-04-14T00:15:05.063Z,1.80
2023-04-14T00:17:33.103Z,0.00
2023-04-14T00:20:01.056Z,0.20
2023-04-14T00:22:29.010Z,0.80
2023-04-14T00:24:56.905Z,4.20
2023-04-14T00:27:26.277Z,2.60
2023-04-14T00:29:54.159Z,4.00
2023-04-14T00:32:22.560Z,0.60
2023-04-14T00:34:50.451Z,3.00
2023-04-14T00:37:18.420Z,1.00
2023-04-14T00:39:46.338Z,3.00
2023-04-14T00:42:14.495Z,1.00
2023-04-14T00:44:43.818Z,1.20
2023-04-14T00:47:11.667Z,1.00
2023-04-14T00:49:39.600Z,2.00
2023-04-14T00:52:07.801Z,4.00
2023-04-14T00:54:36.229Z,0.40
2023-04-14T00:57:04.212Z,4.00
2023-04-14T00:59:32.155Z,0.00
2023-04-14T01:02:02.083Z,3.40
2023-04-14T01:04:44.549Z,3.20
2023-04-14T01:07:12.960Z,1.40
2023-04-14T01:09:40.904Z,2.20
2023-04-14T01:12:13.820Z,1.20
2023-04-14T01:14:43.436Z,3.00
2023-04-14T01:17:16.722Z,1.40
2023-04-14T01:19:54.469Z,1.00
2023-04-14T01:22:23.046Z,2.60
2023-04-14T01:25:19.129Z,3.00
2023-04-14T01:27:54.307Z,1.00
2023-04-14T01:30:49.482Z,0.20
2023-04-14T01:33:20.115Z,1.00
2023-04-14T01:35:51.774Z,1.00
2023-04-14T01:38:28.952Z,0.60
2023-04-14T01:40:59.012Z,2.20
2023-04-14T01:43:28.419Z,1.00
2023-04-14T01:45:57.262Z,1.00
2023-04-14T01:48:26.844Z,1.00
2023-04-14T01:50:54.848Z,1.00
2023-04-14T01:53:22.733Z,2.20
2023-04-14T01:55:50.664Z,1.00
2023-04-14T01:58:19.247Z,3.80
2023-04-14T02:00:47.217Z,4.00
2023-04-14T02:03:15.381Z,1.80
2023-04-14T02:05:44.714Z,3.00
2023-04-14T02:08:13.768Z,1.80
2023-04-14T02:10:46.112Z,3.00
2023-04-14T02:13:14.331Z,1.00
2023-04-14T02:15:42.340Z,1.80
2023-04-14T02:18:10.317Z,3.00
2023-04-14T02:20:42.641Z,1.40
2023-04-14T02:23:12.217Z,1.00
2023-04-14T02:25:41.695Z,2.80
2023-04-14T02:28:13.255Z,3.00
2023-04-14T02:30:42.032Z,2.60
2023-04-14T02:33:10.910Z,1.00
2023-04-14T02:35:40.924Z,3.00
2023-04-14T02:38:09.533Z,0.80
2023-04-14T02:40:39.905Z,1.00
2023-04-14T02:43:13.735Z,3.00
2023-04-14T02:45:42.360Z,3.00
2023-04-14T02:48:11.481Z,4.80
2023-04-14T02:50:39.650Z,1.00
2023-04-14T02:53:07.561Z,2.20
2023-04-14T02:55:35.470Z,3.00
2023-04-14T02:58:04.758Z,4.80
2023-04-14T03:00:32.812Z,6.40
2023-04-14T03:03:01.310Z,4.00
2023-04-14T03:05:29.610Z,5.40
2023-04-14T03:07:57.523Z,5.20
2023-04-14T03:10:25.490Z,7.80
2023-04-14T03:12:53.466Z,4.00
2023-04-14T03:15:22.907Z,0.40
2023-04-14T03:17:54.478Z,5.60
2023-04-14T03:20:23.491Z,1.00
2023-04-14T03:22:57.502Z,3.60
2023-04-14T03:25:27.408Z,5.40
2023-04-14T03:27:55.742Z,4.00
2023-04-14T03:30:26.674Z,3.80
2023-04-14T03:32:54.979Z,5.20
2023-04-14T03:35:23.144Z,1.80
2023-04-14T03:37:51.148Z,4.00
2023-04-14T03:40:19.208Z,3.00
2023-04-14T03:42:47.402Z,5.60
2023-04-14T03:45:17.322Z,4.80
2023-04-14T03:47:46.630Z,3.80
2023-04-14T03:50:15.790Z,4.00
2023-04-14T03:52:44.540Z,3.00
2023-04-14T03:55:12.895Z,5.40
2023-04-14T03:57:40.798Z,3.00
2023-04-14T04:00:09.612Z,3.00
2023-04-14T04:02:38.382Z,4.00
2023-04-14T04:05:08.883Z,4.00
2023-04-14T04:07:37.538Z,3.80
2023-04-14T04:10:06.172Z,1.00
2023-04-14T04:12:34.288Z,4.40
2023-04-14T04:15:02.368Z,3.20
2023-04-14T04:17:30.697Z,3.00
2023-04-14T04:19:58.627Z,4.00
2023-04-14T04:22:27.981Z,6.40
2023-04-14T04:24:56.051Z,3.40
2023-04-14T04:27:28.130Z,3.40
2023-04-14T04:29:57.315Z,3.00
2023-04-14T04:32:25.858Z,4.00
2023-04-14T04:34:53.963Z,3.80
2023-04-14T04:37:22.161Z,3.00
2023-04-14T04:39:51.807Z,3.40
2023-04-14T04:42:20.071Z,6.00
2023-04-14T04:44:48.048Z,5.20
2023-04-14T04:47:16.028Z,4.60
2023-04-14T04:49:43.990Z,3.00
2023-04-14T04:52:12.152Z,4.80
2023-04-14T04:54:40.130Z,5.20
2023-04-14T04:57:09.387Z,4.40
2023-04-14T04:59:38.269Z,4.40
2023-04-14T05:02:10.262Z,4.00
2023-04-14T05:04:38.601Z,2.60
2023-04-14T05:07:06.951Z,6.40
2023-04-14T05:09:34.902Z,3.60
2023-04-14T05:12:05.154Z,3.40
2023-04-14T05:14:39.662Z,6.00
2023-04-14T05:17:07.984Z,7.20
2023-04-14T05:19:35.828Z,6.00
2023-04-14T05:22:03.743Z,4.80
2023-04-14T05:24:31.638Z,4.00
2023-04-14T05:27:13.619Z,5.20
2023-04-14T05:29:43.933Z,3.80
2023-04-14T05:32:13.075Z,4.40
2023-04-14T05:34:41.169Z,6.20
2023-04-14T05:37:09.243Z,6.20
2023-04-14T05:39:37.343Z,7.00
2023-04-14T05:42:05.734Z,4.00
2023-04-14T05:44:33.763Z,1.00
2023-04-14T05:47:03.227Z,5.80
2023-04-14T05:49:31.519Z,5.20
2023-04-14T05:51:59.736Z,3.80
2023-04-14T05:54:27.639Z,9.40
2023-04-14T05:56:56.433Z,3.40
2023-04-14T05:59:24.700Z,3.20
2023-04-14T06:01:52.687Z,3.20
2023-04-14T06:04:22.259Z,3.00
2023-04-14T06:06:50.296Z,8.20
2023-04-14T06:09:20.263Z,3.60
2023-04-14T06:11:48.168Z,6.00
2023-04-14T06:14:16.146Z,3.40
2023-04-14T06:16:44.332Z,3.80
2023-04-14T06:19:12.296Z,3.00
2023-04-14T06:21:41.635Z,4.00
2023-04-14T06:24:10.035Z,1.00
2023-04-14T06:26:37.978Z,4.00
2023-04-14T06:29:07.601Z,3.20
2023-04-14T06:31:36.052Z,6.40
2023-04-14T06:34:04.051Z,1.40
2023-04-14T06:36:31.966Z,3.00
2023-04-14T06:39:01.875Z,6.40
2023-04-14T06:41:33.157Z,6.20
2023-04-14T06:44:00.985Z,5.40
2023-04-14T06:46:29.267Z,4.80
2023-04-14T06:48:57.186Z,5.20
2023-04-14T06:51:25.070Z,3.40
2023-04-14T06:53:53.206Z,4.00
2023-04-14T06:56:22.518Z,6.40
2023-04-14T06:58:50.458Z,6.00
2023-04-14T07:01:18.412Z,6.40
2023-04-14T07:03:47.242Z,5.20
2023-04-14T07:06:17.237Z,5.60
2023-04-14T07:08:47.095Z,3.00
2023-04-14T07:11:16.029Z,3.00
2023-04-14T07:13:45.327Z,5.60
2023-04-14T07:16:13.282Z,4.40
2023-04-14T07:18:41.235Z,6.00
2023-04-14T07:21:09.160Z,3.80
2023-04-14T07:23:37.507Z,4.80
2023-04-14T07:26:06.404Z,4.80
2023-04-14T07:28:34.392Z,3.00
2023-04-14T07:31:10.100Z,4.80
2023-04-14T07:33:38.193Z,3.40
2023-04-14T07:36:07.210Z,5.20
2023-04-14T07:38:35.224Z,3.40
2023-04-14T07:41:04.578Z,2.60
2023-04-14T07:43:35.874Z,6.00
2023-04-14T07:46:05.647Z,1.60
2023-04-14T07:48:35.340Z,19.20
2023-04-14T07:51:03.266Z,14.40
2023-04-14T07:53:31.559Z,14.00
2023-04-14T07:55:59.860Z,12.80
2023-04-14T07:58:29.552Z,12.80
2023-04-14T08:01:01.400Z,14.20
2023-04-14T08:03:34.736Z,4.00
2023-04-14T08:06:05.730Z,7.80
2023-04-14T08:08:41.775Z,7.80
2023-04-14T08:11:10.792Z,10.00
2023-04-14T08:13:38.706Z,3.80
2023-04-14T08:16:06.733Z,0.80
2023-04-14T08:18:34.681Z,9.00
2023-04-14T08:21:04.686Z,0.60
2023-04-14T08:23:33.068Z,1.00
2023-04-14T08:26:00.992Z,1.00
2023-04-14T08:28:29.332Z,1.00
2023-04-14T08:30:57.403Z,0.80
2023-04-14T08:33:26.598Z,8.80
2023-04-14T08:35:59.893Z,1.40
2023-04-14T08:38:34.436Z,3.00
2023-04-14T08:41:02.589Z,6.00
2023-04-14T08:43:30.453Z,1.00
2023-04-14T08:45:58.677Z,2.20
2023-04-14T08:48:28.423Z,1.40
2023-04-14T08:50:59.368Z,5.80
2023-04-14T08:53:28.665Z,1.00
2023-04-14T08:56:05.355Z,0.60
2023-04-14T08:58:38.021Z,1.00
2023-04-14T09:01:06.808Z,0.80
2023-04-14T09:03:34.932Z,0.80
2023-04-14T09:06:06.567Z,2.60
2023-04-14T09:08:34.957Z,2.60
2023-04-14T09:11:06.823Z,1.00
2023-04-14T09:13:38.892Z,3.00
2023-04-14T09:16:12.010Z,3.00
2023-04-14T09:18:40.429Z,3.00
2023-04-14T09:21:31.184Z,2.20
2023-04-14T09:23:57.485Z,1.00
2023-04-14T09:26:27.393Z,3.20
2023-04-14T09:28:55.366Z,3.60
2023-04-14T09:31:23.807Z,1.00
2023-04-14T09:33:51.912Z,1.40
2023-04-14T09:36:20.750Z,3.60
2023-04-14T09:38:50.541Z,3.20
2023-04-14T09:41:18.685Z,6.00
2023-04-14T09:43:48.197Z,3.40
2023-04-14T09:46:16.632Z,3.40
2023-04-14T09:48:52.161Z,4.00
2023-04-14T09:51:23.454Z,3.60
2023-04-14T09:53:51.796Z,3.20
2023-04-14T09:56:19.956Z,2.20
2023-04-14T09:58:50.432Z,4.80
2023-04-14T10:01:19.342Z,3.20
2023-04-14T10:03:51.384Z,4.00
2023-04-14T10:06:21.907Z,2.60
2023-04-14T10:08:53.827Z,3.40
2023-04-14T10:11:23.034Z,4.00
2023-04-14T10:13:54.206Z,3.00
2023-04-14T10:16:23.446Z,4.00
2023-04-14T10:18:53.358Z,3.40
2023-04-14T10:21:23.567Z,3.40
2023-04-14T10:23:53.748Z,3.00
2023-04-14T10:26:24.454Z,6.20
2023-04-14T10:28:55.487Z,2.60
2023-04-14T10:31:25.298Z,3.20
2023-04-14T10:33:54.148Z,4.00
2023-04-14T10:36:25.574Z,1.40
2023-04-14T10:38:59.861Z,3.60
2023-04-14T10:41:31.879Z,4.20
2023-04-14T10:44:04.560Z,1.00
2023-04-14T10:46:50.506Z,2.00
2023-04-14T10:49:18.971Z,2.50
2023-04-14T10:51:49.922Z,4.00
2023-04-14T10:54:19.017Z,4.00
2023-04-14T10:57:12.454Z,2.50
2023-04-14T10:59:54.680Z,3.50
2023-04-14T11:02:29.802Z,3.75
2023-04-14T11:05:07.693Z,3.00
2023-04-14T11:07:42.141Z,3.00
2023-04-14T11:10:35.700Z,1.00
2023-04-14T11:13:10.034Z,1.00
2023-04-14T11:15:52.731Z,3.00
2023-04-14T11:18:36.320Z,2.00
2023-04-14T11:21:06.234Z,2.00
2023-04-14T11:23:34.567Z,2.00
2023-04-14T11:26:03.830Z,0.00
2023-04-14T11:28:33.763Z,1.50
2023-04-14T11:31:09.627Z,0.75
2023-04-14T11:33:39.939Z,3.50
2023-04-14T11:36:10.204Z,1.00
2023-04-14T11:38:40.860Z,1.00
2023-04-14T11:41:14.941Z,3.00
2023-04-14T11:43:46.901Z,1.50
2023-04-14T11:46:16.715Z,0.00
2023-04-14T11:48:44.735Z,1.00
2023-04-14T11:51:12.683Z,1.00
2023-04-14T11:53:40.918Z,1.50
2023-04-14T11:56:09.379Z,3.00
2023-04-14T11:58:37.563Z,0.50
2023-04-14T12:01:05.831Z,2.00
2023-04-14T12:03:35.739Z,1.00
2023-04-14T12:06:04.027Z,1.00
2023-04-14T12:08:32.354Z,0.75
2023-04-14T12:11:00.315Z,4.00
2023-04-14T12:13:28.214Z,1.00
2023-04-14T12:15:56.448Z,1.50
2023-04-14T12:18:24.478Z,1.00
2023-04-14T12:20:55.595Z,1.00
2023-04-14T12:23:25.655Z,1.00
2023-04-14T12:25:53.767Z,1.00
2023-04-14T12:28:25.679Z,1.00
2023-04-14T12:30:54.245Z,0.00
2023-04-14T12:33:23.719Z,0.75
2023-04-14T12:35:51.837Z,0.25
2023-04-14T12:38:21.849Z,0.25
2023-04-14T12:40:49.789Z,0.00
2023-04-14T12:43:17.902Z,1.00
2023-04-14T12:45:47.262Z,3.00
2023-04-14T12:48:19.252Z,1.50
2023-04-14T12:50:51.263Z,1.00
2023-04-14T12:53:28.435Z,0.00
2023-04-14T12:56:07.170Z,1.75
2023-04-14T12:58:35.193Z,3.00
2023-04-14T13:01:03.467Z,0.75
2023-04-14T13:03:45.076Z,3.00
2023-04-14T13:06:13.720Z,0.00
2023-04-14T13:08:46.256Z,1.00
2023-04-14T13:11:14.304Z,0.50
2023-04-14T13:13:42.318Z,1.00
2023-04-14T13:16:13.519Z,1.00
2023-04-14T13:18:43.725Z,2.00
2023-04-14T13:21:11.811Z,0.50
2023-04-14T13:23:42.512Z,1.00
2023-04-14T13:26:12.014Z,2.00
2023-04-14T13:28:40.235Z,3.00
2023-04-14T13:31:08.461Z,1.00
2023-04-14T13:33:36.465Z,0.50
2023-04-14T13:36:04.607Z,2.00
2023-04-14T13:38:33.454Z,1.00
2023-04-14T13:41:08.354Z,1.00
2023-04-14T13:43:41.526Z,1.00
2023-04-14T13:46:09.671Z,0.75
2023-04-14T13:48:38.619Z,2.50
2023-04-14T13:51:06.685Z,1.00
2023-04-14T13:53:34.605Z,1.00
2023-04-14T13:56:02.957Z,1.00
2023-04-14T13:58:30.810Z,0.00
2023-04-14T14:01:00.173Z,2.50
2023-04-14T14:03:29.946Z,0.25
2023-04-14T14:05:59.502Z,3.00
2023-04-14T14:08:27.379Z,0.50
2023-04-14T14:10:55.550Z,1.00
2023-04-14T14:13:23.512Z,0.25
2023-04-14T14:15:51.493Z,1.00
2023-04-14T14:18:21.202Z,1.00
2023-04-14T14:20:49.289Z,1.00
2023-04-14T14:23:17.451Z,1.00
2023-04-14T14:25:46.472Z,1.00
2023-04-14T14:28:16.252Z,1.00
2023-04-14T14:30:44.323Z,3.25
2023-04-14T14:33:12.498Z,0.50
2023-04-14T14:35:41.830Z,1.00
2023-04-14T14:38:09.710Z,1.00
2023-04-14T14:40:37.665Z,1.00
2023-04-14T14:43:06.340Z,0.25
2023-04-14T14:45:34.273Z,0.50
2023-04-14T14:48:02.879Z,0.25
2023-04-14T14:50:30.820Z,1.00
2023-04-14T14:53:00.115Z,1.50
2023-04-14T14:55:28.312Z,5.00
2023-04-14T14:57:56.278Z,2.50
2023-04-14T15:00:24.308Z,1.00
2023-04-14T15:02:53.462Z,13.50
2023-04-14T15:05:21.529Z,2.00
2023-04-14T15:07:49.679Z,1.50
2023-04-14T15:10:22.933Z,1.00
2023-04-14T15:12:50.894Z,4.00
2023-04-14T15:15:20.057Z,1.50
2023-04-14T15:17:48.595Z,2.00
2023-04-14T15:20:17.140Z,0.50
2023-04-14T15:22:45.034Z,1.00
2023-04-14T15:25:14.394Z,1.00
2023-04-14T15:27:44.214Z,1.00
2023-04-14T15:30:13.255Z,1.00
2023-04-14T15:32:41.239Z,1.00
2023-04-14T15:35:10.322Z,2.00
2023-04-14T15:37:38.208Z,3.50
2023-04-14T15:40:07.291Z,3.00
2023-04-14T15:42:35.559Z,0.25
2023-04-14T15:45:05.261Z,1.00
2023-04-14T15:47:33.318Z,1.00
2023-04-14T15:50:09.854Z,2.50
2023-04-14T15:52:43.814Z,1.00
2023-04-14T15:55:15.796Z,1.00
2023-04-14T15:57:44.251Z,1.00
2023-04-14T16:00:23.374Z,3.75
2023-04-14T16:02:55.251Z,2.50
2023-04-14T16:05:45.358Z,0.25
2023-04-14T16:08:18.386Z,1.00
2023-04-14T16:10:46.665Z,0.00
2023-04-14T16:13:14.940Z,0.50
2023-04-14T16:15:44.231Z,0.00
2023-04-14T16:18:12.421Z,1.00
2023-04-14T16:20:41.160Z,1.00
2023-04-14T16:23:09.030Z,9.25
2023-04-14T16:25:36.877Z,1.00
2023-04-14T16:28:05.118Z,1.00
2023-04-14T16:30:33.201Z,0.00
2023-04-14T16:33:02.662Z,1.00
2023-04-14T16:35:30.886Z,1.00
2023-04-14T16:37:59.488Z,2.00
2023-04-14T16:40:27.595Z,1.50
2023-04-14T16:42:56.416Z,4.00
2023-04-14T16:45:25.271Z,2.50
2023-04-14T16:47:53.292Z,1.00
2023-04-14T16:50:22.745Z,2.50
2023-04-14T16:52:52.383Z,1.00
2023-04-14T16:56:10.033Z,4.00
2023-04-14T16:58:38.957Z,1.00
2023-04-14T17:01:07.575Z,3.00
2023-04-14T17:03:36.819Z,3.00
2023-04-14T17:06:06.558Z,4.25
2023-04-14T17:08:35.030Z,1.00
2023-04-14T17:11:03.472Z,3.00
2023-04-14T17:13:31.434Z,3.00
2023-04-14T17:16:08.417Z,1.00
2023-04-14T17:18:37.687Z,1.00
2023-04-14T17:21:07.493Z,2.50
2023-04-14T17:23:37.066Z,3.00
2023-04-14T17:26:06.351Z,3.00
2023-04-14T17:28:35.727Z,3.00
2023-04-14T17:31:05.088Z,2.00
2023-04-14T17:33:33.053Z,0.50
2023-04-14T17:36:01.014Z,3.50
2023-04-14T17:38:31.243Z,6.60
2023-04-14T17:40:59.410Z,6.25
2023-04-14T17:43:27.389Z,10.00
2023-04-14T17:45:55.359Z,6.00
2023-04-14T17:48:23.432Z,3.20
2023-04-14T17:50:51.701Z,4.40
2023-04-14T17:53:22.038Z,6.60
2023-04-14T17:55:52.402Z,9.40
2023-04-14T17:58:20.386Z,12.00
2023-04-14T18:00:48.684Z,7.00
2023-04-14T18:03:17.148Z,8.60
2023-04-14T18:05:45.084Z,9.60
2023-04-14T18:08:14.268Z,9.60
2023-04-14T18:10:45.590Z,3.20
2023-04-14T18:13:15.328Z,11.20
2023-04-14T18:15:43.552Z,9.00
2023-04-14T18:18:11.620Z,9.80
2023-04-14T18:20:39.527Z,8.60
2023-04-14T18:23:07.572Z,15.00
2023-04-14T18:28:06.465Z,12.20
2023-04-14T18:30:35.854Z,10.80
2023-04-14T18:33:03.843Z,10.00
2023-04-14T18:35:33.608Z,11.20
2023-04-14T18:38:01.799Z,9.00
2023-04-14T18:40:29.712Z,9.00
2023-04-14T18:42:57.669Z,9.80
2023-04-14T18:45:26.726Z,10.00
2023-04-14T18:47:58.589Z,10.40
2023-04-14T18:50:27.204Z,10.40
2023-04-14T18:52:56.262Z,9.40
2023-04-14T18:55:24.154Z,10.00
2023-04-14T18:57:52.592Z,9.40
2023-04-14T19:00:21.277Z,8.60
2023-04-14T19:02:49.850Z,7.00
2023-04-14T19:05:19.633Z,6.80
2023-04-14T19:07:47.910Z,10.00
2023-04-14T19:10:15.953Z,8.20
2023-04-14T19:12:43.854Z,7.40
2023-04-14T19:15:13.346Z,12.60
2023-04-14T19:17:41.912Z,9.80
2023-04-14T19:20:10.631Z,8.20
2023-04-14T19:22:39.954Z,6.40
2023-04-14T19:25:08.655Z,8.80
2023-04-14T19:27:38.586Z,11.20
2023-04-14T19:30:08.011Z,7.00
2023-04-14T19:32:36.249Z,8.20
2023-04-14T19:35:06.528Z,10.40
2023-04-14T19:37:34.960Z,11.20
2023-04-14T19:40:06.095Z,5.60
2023-04-14T19:42:34.213Z,12.80
2023-04-14T19:45:02.151Z,16.20
2023-04-14T19:47:30.143Z,10.00
2023-04-14T19:49:59.797Z,15.20
2023-04-14T19:52:28.375Z,10.80
2023-04-14T19:54:56.946Z,7.00
2023-04-14T19:57:26.748Z,15.00
2023-04-14T19:59:55.210Z,11.40
2023-04-14T20:05:28.290Z,8.20
2023-04-14T20:07:56.738Z,11.60
2023-04-14T20:10:24.950Z,13.00
2023-04-14T20:12:54.550Z,9.40
2023-04-14T20:15:22.532Z,10.60
2023-04-14T20:17:50.625Z,16.40
2023-04-14T20:20:18.875Z,13.00
2023-04-14T20:22:47.094Z,9.20
2023-04-14T20:25:15.063Z,9.60
2023-04-14T20:27:42.973Z,14.40
2023-04-14T20:30:12.935Z,10.80
2023-04-14T20:32:40.998Z,10.00
2023-04-14T20:35:09.581Z,9.00
2023-04-14T20:37:37.573Z,13.00
2023-04-14T20:40:06.367Z,9.00
2023-04-14T20:42:34.834Z,9.00
2023-04-14T20:45:03.089Z,9.00
2023-04-14T20:47:32.562Z,9.00
2023-04-14T20:50:00.623Z,10.00
2023-04-14T20:52:28.768Z,12.40
2023-04-14T20:54:56.757Z,9.80
2023-04-14T20:57:24.704Z,15.00
2023-04-14T20:59:52.602Z,10.80
2023-04-14T21:02:21.014Z,6.80
2023-04-14T21:04:50.387Z,6.00
2023-04-14T21:07:18.364Z,9.80
2023-04-14T21:09:46.290Z,6.00
2023-04-14T21:12:16.557Z,6.20
2023-04-14T21:15:41.344Z,10.60
2023-04-14T21:17:34.558Z,9.40
2023-04-14T21:20:04.350Z,9.20
2023-04-14T21:22:32.480Z,8.20
2023-04-14T21:25:00.607Z,10.00
2023-04-14T21:27:29.447Z,9.60
2023-04-14T21:29:57.424Z,10.00
2023-04-14T21:32:25.551Z,10.00
2023-04-14T21:34:53.867Z,13.80
2023-04-14T21:37:23.255Z,13.60
2023-04-14T21:39:51.266Z,12.20
2023-04-14T21:42:20.073Z,10.00
2023-04-14T21:44:49.225Z,14.60
2023-04-14T21:47:17.641Z,12.80
2023-04-14T21:49:45.769Z,15.40
2023-04-14T21:52:13.981Z,14.20
2023-04-14T21:54:44.381Z,12.00
2023-04-14T21:57:12.696Z,10.80
2023-04-14T21:59:40.636Z,9.00
2023-04-14T22:02:09.358Z,13.00
2023-04-14T22:04:38.169Z,10.00
2023-04-14T22:07:06.487Z,9.60
2023-04-14T22:09:34.562Z,9.60
2023-04-14T22:12:04.965Z,11.20
2023-04-14T22:14:32.992Z,7.80
2023-04-14T22:17:04.000Z,7.00
2023-04-14T22:19:33.003Z,6.80
2023-04-14T22:22:01.152Z,9.00
2023-04-14T22:24:29.420Z,7.00
2023-04-14T22:26:57.429Z,8.60
2023-04-14T22:29:27.252Z,4.80
2023-04-14T22:31:55.151Z,9.40
2023-04-14T22:34:23.207Z,9.40
2023-04-14T22:36:51.211Z,8.20
2023-04-14T22:39:19.526Z,9.00
2023-04-14T22:41:49.693Z,8.20
2023-04-14T22:44:17.994Z,10.00
2023-04-14T22:46:47.932Z,16.00
2023-04-14T22:49:15.945Z,12.60
2023-04-14T22:51:43.845Z,9.00
2023-04-14T22:54:12.384Z,6.00
2023-04-14T22:56:41.040Z,12.40
2023-04-14T22:59:08.982Z,10.00
2023-04-14T23:01:37.483Z,10.00
2023-04-14T23:04:07.033Z,6.20
2023-04-14T23:06:35.004Z,15.60
2023-04-14T23:09:04.738Z,12.20
2023-04-14T23:11:33.718Z,12.20
2023-04-14T23:14:02.846Z,7.00
2023-04-14T23:16:31.097Z,11.60
2023-04-14T23:18:59.181Z,11.20
2023-04-14T23:21:29.644Z,6.20
2023-04-14T23:23:57.976Z,9.20
2023-04-14T23:26:26.055Z,9.00
2023-04-14T23:28:54.142Z,6.80
2023-04-14T23:31:22.181Z,10.40
2023-04-14T23:33:52.864Z,12.60
2023-04-14T23:36:21.035Z,11.60
2023-04-14T23:38:50.438Z,7.00
2023-04-14T23:41:19.488Z,12.20
2023-04-14T23:43:49.164Z,11.00
2023-04-14T23:46:19.770Z,13.60
2023-04-14T23:48:47.821Z,10.60
2023-04-14T23:51:21.677Z,7.40
2023-04-14T23:53:51.672Z,12.80
2023-04-14T23:56:20.022Z,9.00
2023-04-14T23:58:48.590Z,13.80
